Time;durP1;ratioP1;P1;durP2;ratioP2;P2;SDS_P1;SDS_P2;PMS_P1;PMS_P2;Temp;Humidity;BMP_temperature;BMP_pressure;BME280_temperature;BME280_humidity;BME280_pressure;Samples;Min_cycle;Max_cycle;Signal;HPM_P1;HPM_P2
2022/10/03 00:00:38;;;;;;;2.20;1.20;;;;;;;;;;5034901;28;20496;-63
2022/10/03 00:03:15;;;;;;;2.10;1.23;;;;;;;;;;5034138;28;20496;-63
2022/10/03 00:05:52;;;;;;;2.30;1.03;;;;;;;;;;5034706;28;20441;-63
2022/10/03 00:08:28;;;;;;;2.07;0.93;;;;;;;;;;5034635;28;20917;-63
2022/10/03 00:10:59;;;;;;;1.70;0.93;;;;;;;;;;5034761;28;20438;-63
2022/10/03 00:13:28;;;;;;;2.00;0.90;;;;;;;;;;5034689;28;20488;-63
2022/10/03 00:16:05;;;;;;;2.97;1.20;;;;;;;;;;5034337;28;20446;-63
2022/10/03 00:18:38;;;;;;;2.03;0.80;;;;;;;;;;5034248;28;20528;-63
2022/10/03 00:21:19;;;;;;;1.93;0.93;;;;;;;;;;5034304;28;20515;-63
2022/10/03 00:23:51;;;;;;;2.67;1.57;;;;;;;;;;5034304;28;20503;-64
2022/10/03 00:26:27;;;;;;;1.90;0.80;;;;;;;;;;5034303;28;20579;-64
2022/10/03 00:29:28;;;;;;;2.10;1.10;;;;;;;;;;5034277;28;20529;-63
2022/10/03 00:32:01;;;;;;;5.13;1.90;;;;;;;;;;4972815;28;20527;-64
2022/10/03 00:34:36;;;;;;;4.67;1.40;;;;;;;;;;4972822;28;20476;-63
2022/10/03 00:37:20;;;;;;;2.13;1.33;;;;;;;;;;5005593;28;20451;-63
2022/10/03 00:39:56;;;;;;;3.40;1.80;;;;;;;;;;5034464;28;20437;-63
2022/10/03 00:42:36;;;;;;;2.27;1.33;;;;;;;;;;5033856;28;20444;-63
2022/10/03 00:45:19;;;;;;;2.60;1.67;;;;;;;;;;5034084;28;20507;-63
2022/10/03 00:48:06;;;;;;;3.80;1.80;;;;;;;;;;5033207;28;20497;-63
2022/10/03 00:50:51;;;;;;;3.27;2.27;;;;;;;;;;5033966;28;20528;-63
2022/10/03 00:53:34;;;;;;;6.00;1.80;;;;;;;;;;5033861;28;20460;-64
2022/10/03 00:56:15;;;;;;;4.53;2.33;;;;;;;;;;5033575;28;20544;-63
2022/10/03 00:58:51;;;;;;;5.13;1.70;;;;;;;;;;5033698;28;20452;-63
2022/10/03 01:01:23;;;;;;;2.30;1.60;;;;;;;;;;5033385;28;20484;-64
2022/10/03 01:03:55;;;;;;;2.47;2.00;;;;;;;;;;5033265;28;20796;-63
2022/10/03 01:06:28;;;;;;;3.13;2.20;;;;;;;;;;5033650;28;20519;-65
2022/10/03 01:09:17;;;;;;;3.20;1.93;;;;;;;;;;5033496;28;20624;-63
2022/10/03 01:11:50;;;;;;;2.90;2.10;;;;;;;;;;5033467;28;20445;-63
2022/10/03 01:14:28;;;;;;;3.93;2.53;;;;;;;;;;5033456;28;20452;-63
2022/10/03 01:16:59;;;;;;;3.50;2.33;;;;;;;;;;5033417;28;20430;-63
2022/10/03 01:19:46;;;;;;;4.87;2.87;;;;;;;;;;5033260;28;20794;-63
2022/10/03 01:22:23;;;;;;;5.10;2.70;;;;;;;;;;5033472;28;20442;-63
2022/10/03 01:24:57;;;;;;;4.93;2.70;;;;;;;;;;5033301;28;20524;-63
2022/10/03 01:27:27;;;;;;;4.90;3.07;;;;;;;;;;5033138;28;20528;-63
2022/10/03 01:32:45;;;;;;;6.80;3.50;;;;;;;;;;5033224;28;20421;-63
2022/10/03 01:35:18;;;;;;;4.43;3.00;;;;;;;;;;5033386;28;20469;-63
2022/10/03 01:37:50;;;;;;;3.73;2.20;;;;;;;;;;5033017;28;20476;-63
2022/10/03 01:40:24;;;;;;;3.67;2.30;;;;;;;;;;5033240;28;20441;-63
2022/10/03 01:43:00;;;;;;;3.53;2.40;;;;;;;;;;5032457;28;20430;-63
2022/10/03 01:45:30;;;;;;;4.00;2.90;;;;;;;;;;5033241;28;20444;-63
2022/10/03 01:48:00;;;;;;;6.50;2.70;;;;;;;;;;5032720;28;20991;-63
2022/10/03 01:50:32;;;;;;;3.50;2.63;;;;;;;;;;5032883;28;20446;-63
2022/10/03 01:53:04;;;;;;;3.80;2.63;;;;;;;;;;5032840;28;20434;-63
2022/10/03 01:55:35;;;;;;;3.53;2.80;;;;;;;;;;5032100;28;20441;-63
2022/10/03 01:58:08;;;;;;;4.30;2.60;;;;;;;;;;5032966;28;20532;-63
2022/10/03 02:00:43;;;;;;;5.57;3.20;;;;;;;;;;5032717;28;20442;-63
2022/10/03 02:03:12;;;;;;;4.77;2.50;;;;;;;;;;5032788;28;20449;-63
2022/10/03 02:05:42;;;;;;;4.50;3.13;;;;;;;;;;5032820;28;20437;-63
2022/10/03 02:08:17;;;;;;;3.70;2.70;;;;;;;;;;5032673;28;20902;-63
2022/10/03 02:10:46;;;;;;;6.03;3.90;;;;;;;;;;5032753;28;20507;-63
2022/10/03 02:13:15;;;;;;;4.33;3.67;;;;;;;;;;5032564;28;20528;-64
2022/10/03 02:15:48;;;;;;;4.80;3.43;;;;;;;;;;5032819;28;20438;-63
2022/10/03 02:18:18;;;;;;;5.20;3.70;;;;;;;;;;5032166;28;20612;-64
2022/10/03 02:20:48;;;;;;;3.70;3.07;;;;;;;;;;5032512;28;20572;-63
2022/10/03 02:23:24;;;;;;;3.50;3.13;;;;;;;;;;5032700;28;20474;-63
2022/10/03 02:25:54;;;;;;;5.10;3.30;;;;;;;;;;5032518;28;20450;-64
2022/10/03 02:28:45;;;;;;;4.97;3.10;;;;;;;;;;5032432;28;20576;-63
2022/10/03 02:31:31;;;;;;;4.57;3.47;;;;;;;;;;5017649;28;20528;-63
2022/10/03 02:34:05;;;;;;;5.93;4.50;;;;;;;;;;5032036;28;20484;-62
2022/10/03 02:36:54;;;;;;;6.07;4.57;;;;;;;;;;5032258;28;20492;-63
2022/10/03 02:39:32;;;;;;;4.50;3.93;;;;;;;;;;5032352;28;20520;-63
2022/10/03 02:42:24;;;;;;;4.40;3.93;;;;;;;;;;5032319;28;20487;-63
2022/10/03 02:45:02;;;;;;;7.50;4.00;;;;;;;;;;5032417;28;20503;-63
2022/10/03 02:47:46;;;;;;;5.77;4.67;;;;;;;;;;5031464;28;20481;-63
2022/10/03 02:50:24;;;;;;;6.10;4.53;;;;;;;;;;5032248;28;20449;-64
2022/10/03 02:53:07;;;;;;;8.45;5.10;;;;;;;;;;5032287;28;20438;-63
2022/10/03 02:55:44;;;;;;;8.77;5.17;;;;;;;;;;5031777;28;20305;-63
2022/10/03 02:58:35;;;;;;;6.10;4.83;;;;;;;;;;5031974;28;20473;-64
2022/10/03 03:01:20;;;;;;;5.93;4.70;;;;;;;;;;5016847;28;20440;-63
2022/10/03 03:04:08;;;;;;;6.13;3.90;;;;;;;;;;5031835;28;20445;-63
2022/10/03 03:06:51;;;;;;;5.70;4.50;;;;;;;;;;5034366;28;20465;-63
2022/10/03 03:09:36;;;;;;;6.33;4.27;;;;;;;;;;5035980;28;20500;-64
2022/10/03 03:12:18;;;;;;;5.90;4.80;;;;;;;;;;5035724;28;20448;-63
2022/10/03 03:14:58;;;;;;;7.03;4.20;;;;;;;;;;5002992;28;20444;-63
2022/10/03 03:17:30;;;;;;;5.50;4.73;;;;;;;;;;5035557;28;20472;-64
2022/10/03 03:20:16;;;;;;;6.10;4.93;;;;;;;;;;5035762;28;20445;-63
2022/10/03 03:22:55;;;;;;;6.63;4.43;;;;;;;;;;5035460;28;20442;-63
2022/10/03 03:25:31;;;;;;;5.07;4.57;;;;;;;;;;5035648;28;20789;-63
2022/10/03 03:28:10;;;;;;;10.67;5.10;;;;;;;;;;5035359;28;20535;-63
2022/10/03 03:30:40;;;;;;;5.00;4.23;;;;;;;;;;5035503;28;20438;-63
2022/10/03 03:33:12;;;;;;;7.63;4.80;;;;;;;;;;5035229;28;20499;-63
2022/10/03 03:35:46;;;;;;;5.83;4.67;;;;;;;;;;5035043;28;20568;-63
2022/10/03 03:38:22;;;;;;;7.67;5.07;;;;;;;;;;5035409;28;20524;-64
2022/10/03 03:40:55;;;;;;;6.40;5.23;;;;;;;;;;5035211;28;20456;-64
2022/10/03 03:43:33;;;;;;;6.40;4.60;;;;;;;;;;5035293;28;20438;-63
2022/10/03 03:46:06;;;;;;;5.40;4.57;;;;;;;;;;5035217;28;20438;-63
2022/10/03 03:48:46;;;;;;;7.97;6.17;;;;;;;;;;5034810;28;20591;-63
2022/10/03 03:51:22;;;;;;;6.13;4.47;;;;;;;;;;5035180;28;20492;-63
2022/10/03 03:54:15;;;;;;;6.30;4.70;;;;;;;;;;5034877;28;20429;-63
2022/10/03 03:56:51;;;;;;;4.60;4.00;;;;;;;;;;5034958;28;20452;-63
2022/10/03 03:59:27;;;;;;;6.80;4.30;;;;;;;;;;5034963;28;20450;-63
2022/10/03 04:02:15;;;;;;;4.30;3.70;;;;;;;;;;5034990;28;20468;-63
2022/10/03 04:04:54;;;;;;;5.37;4.50;;;;;;;;;;5035347;28;20785;-63
2022/10/03 04:07:27;;;;;;;10.07;5.17;;;;;;;;;;5034930;28;20488;-63
2022/10/03 04:10:04;;;;;;;8.70;5.60;;;;;;;;;;5035060;28;20441;-63
2022/10/03 04:12:41;;;;;;;7.63;6.30;;;;;;;;;;5035141;28;20434;-63
2022/10/03 04:15:26;;;;;;;7.63;5.17;;;;;;;;;;5034932;28;20999;-63
2022/10/03 04:20:55;;;;;;;7.73;4.83;;;;;;;;;;5035135;28;20425;-63
2022/10/03 04:23:28;;;;;;;8.50;5.47;;;;;;;;;;5034539;28;20524;-63
2022/10/03 04:26:09;;;;;;;13.87;5.53;;;;;;;;;;5034915;28;20470;-63
2022/10/03 04:28:49;;;;;;;9.00;5.17;;;;;;;;;;5034912;28;20543;-63
2022/10/03 04:31:23;;;;;;;6.63;4.80;;;;;;;;;;5034843;28;20441;-63
2022/10/03 04:33:58;;;;;;;7.70;5.13;;;;;;;;;;5034584;28;20442;-63
2022/10/03 04:36:40;;;;;;;6.13;5.00;;;;;;;;;;5034667;28;20477;-63
2022/10/03 04:39:11;;;;;;;4.87;4.40;;;;;;;;;;5002060;28;20456;-63
2022/10/03 04:41:43;;;;;;;6.70;4.63;;;;;;;;;;5034665;28;20488;-63
2022/10/03 04:44:21;;;;;;;6.63;5.10;;;;;;;;;;5034776;28;20465;-63
2022/10/03 04:46:51;;;;;;;8.40;5.30;;;;;;;;;;5034522;28;20777;-63
2022/10/03 04:49:22;;;;;;;7.07;5.40;;;;;;;;;;5034087;28;20468;-63
2022/10/03 04:51:53;;;;;;;6.50;5.67;;;;;;;;;;5034444;28;20537;-63
2022/10/03 04:54:25;;;;;;;9.60;5.00;;;;;;;;;;5034300;28;20446;-63
2022/10/03 04:56:54;;;;;;;7.20;6.20;;;;;;;;;;5034350;28;20446;-64
2022/10/03 04:59:39;;;;;;;7.73;6.07;;;;;;;;;;5034046;28;20434;-63
2022/10/03 05:02:13;;;;;;;8.67;5.90;;;;;;;;;;5034169;28;20434;-63
2022/10/03 05:04:45;;;;;;;8.50;5.80;;;;;;;;;;5034162;28;20433;-63
2022/10/03 05:07:15;;;;;;;8.80;6.40;;;;;;;;;;5034090;28;20442;-63
2022/10/03 05:09:46;;;;;;;9.53;6.17;;;;;;;;;;5034197;28;20441;-63
2022/10/03 05:12:16;;;;;;;6.60;5.70;;;;;;;;;;5034004;28;20524;-64
2022/10/03 05:14:52;;;;;;;8.63;7.07;;;;;;;;;;5033988;28;20787;-63
2022/10/03 05:17:23;;;;;;;9.17;6.30;;;;;;;;;;5033744;28;20441;-63
2022/10/03 05:19:55;;;;;;;10.13;7.00;;;;;;;;;;5033737;28;20515;-63
2022/10/03 05:22:29;;;;;;;11.00;7.20;;;;;;;;;;5033750;28;20495;-63
2022/10/03 05:24:59;;;;;;;8.37;7.03;;;;;;;;;;5033755;28;20770;-63
2022/10/03 05:27:32;;;;;;;8.20;6.53;;;;;;;;;;5033593;28;20509;-63
2022/10/03 05:30:02;;;;;;;13.50;7.60;;;;;;;;;;5032951;28;20496;-63
2022/10/03 05:32:35;;;;;;;10.57;8.33;;;;;;;;;;5033730;28;20503;-63
2022/10/03 05:35:12;;;;;;;11.90;8.82;;;;;;;;;;5033698;28;20448;-63
2022/10/03 05:37:57;;;;;;;9.63;8.07;;;;;;;;;;5033716;28;20195;-63
2022/10/03 05:40:25;;;;;;;18.53;7.73;;;;;;;;;;5033198;28;20500;-63
2022/10/03 05:43:05;;;;;;;9.80;7.70;;;;;;;;;;5033587;28;20434;-64
2022/10/03 05:45:36;;;;;;;9.20;8.00;;;;;;;;;;5033386;28;20790;-63
2022/10/03 05:48:15;;;;;;;10.57;7.03;;;;;;;;;;5032767;28;20572;-64
2022/10/03 05:50:56;;;;;;;11.33;7.80;;;;;;;;;;5033259;28;20438;-63
2022/10/03 05:53:44;;;;;;;8.33;7.23;;;;;;;;;;5033389;28;20544;-64
2022/10/03 05:56:20;;;;;;;9.70;8.13;;;;;;;;;;5008133;28;20434;-63
2022/10/03 05:58:54;;;;;;;8.93;8.03;;;;;;;;;;5032999;28;20441;-63
2022/10/03 06:01:42;;;;;;;9.60;7.67;;;;;;;;;;5033271;28;20438;-63
2022/10/03 06:04:22;;;;;;;11.27;8.40;;;;;;;;;;5033299;28;20500;-63
2022/10/03 06:06:52;;;;;;;11.00;7.28;;;;;;;;;;5033387;28;20833;-64
2022/10/03 06:09:49;;;;;;;8.17;7.30;;;;;;;;;;5033021;28;20704;-64
2022/10/03 06:12:20;;;;;;;10.33;7.10;;;;;;;;;;4971885;28;20444;-63
2022/10/03 06:15:16;;;;;;;12.83;6.97;;;;;;;;;;5020608;28;20445;-63
2022/10/03 06:17:56;;;;;;;9.60;7.57;;;;;;;;;;5033041;28;20438;-64
2022/10/03 06:20:40;;;;;;;13.23;8.47;;;;;;;;;;5033225;28;20481;-64
2022/10/03 06:23:28;;;;;;;8.63;6.90;;;;;;;;;;5033045;28;20445;-63
2022/10/03 06:26:07;;;;;;;10.67;6.70;;;;;;;;;;5032634;28;20444;-64
2022/10/03 06:29:02;;;;;;;12.73;8.00;;;;;;;;;;5032906;28;20489;-63
2022/10/03 06:31:46;;;;;;;13.53;8.50;;;;;;;;;;5032922;28;20448;-63
2022/10/03 06:34:27;;;;;;;12.43;9.43;;;;;;;;;;5032821;28;20452;-64
2022/10/03 06:37:14;;;;;;;11.50;9.63;;;;;;;;;;5032823;28;20442;-63
2022/10/03 06:39:59;;;;;;;9.50;7.40;;;;;;;;;;5032887;28;20795;-63
2022/10/03 06:42:42;;;;;;;13.63;8.67;;;;;;;;;;5036523;28;20554;-63
2022/10/03 06:45:40;;;;;;;11.20;8.27;;;;;;;;;;5036916;28;20464;-63
2022/10/03 06:48:20;;;;;;;11.23;7.60;;;;;;;;;;4974793;28;20491;-63
2022/10/03 06:51:08;;;;;;;12.70;8.07;;;;;;;;;;5028004;28;20540;-63
2022/10/03 06:53:43;;;;;;;9.47;7.37;;;;;;;;;;5036607;28;20476;-63
2022/10/03 06:56:37;;;;;;;13.87;7.90;;;;;;;;;;5036466;28;20441;-64
2022/10/03 06:59:25;;;;;;;11.77;8.70;;;;;;;;;;5036689;28;20592;-63
2022/10/03 07:02:19;;;;;;;8.80;7.63;;;;;;;;;;5031778;28;21002;-63
2022/10/03 07:05:06;;;;;;;12.17;8.57;;;;;;;;;;5000853;28;20445;-64
2022/10/03 07:07:52;;;;;;;12.90;8.20;;;;;;;;;;5036064;28;20477;-63
2022/10/03 07:10:28;;;;;;;12.30;8.53;;;;;;;;;;5036348;28;20469;-63
2022/10/03 07:13:14;;;;;;;8.93;7.93;;;;;;;;;;5035785;28;20560;-63
2022/10/03 07:15:50;;;;;;;11.03;8.63;;;;;;;;;;5036254;28;20942;-63
2022/10/03 07:18:40;;;;;;;17.60;7.97;;;;;;;;;;5036000;28;20444;-64
2022/10/03 07:21:31;;;;;;;15.40;8.93;;;;;;;;;;5035928;28;20983;-67
2022/10/03 07:24:18;;;;;;;11.37;7.90;;;;;;;;;;5021093;28;20445;-63
2022/10/03 07:26:56;;;;;;;8.50;6.87;;;;;;;;;;5036122;28;20441;-64
2022/10/03 07:29:36;;;;;;;8.70;6.83;;;;;;;;;;5035926;28;20577;-64
2022/10/03 07:32:14;;;;;;;7.77;5.20;;;;;;;;;;5035976;28;20448;-63
2022/10/03 07:34:59;;;;;;;6.90;5.43;;;;;;;;;;5035775;28;20435;-63
2022/10/03 07:40:37;;;;;;;10.90;5.40;;;;;;;;;;5035791;28;20772;-64
2022/10/03 07:43:29;;;;;;;5.23;4.40;;;;;;;;;;5035595;28;20454;-64
2022/10/03 07:46:20;;;;;;;7.37;3.70;;;;;;;;;;5035366;28;20434;-64
2022/10/03 07:49:03;;;;;;;6.17;4.10;;;;;;;;;;5035118;28;20485;-63
2022/10/03 07:51:36;;;;;;;5.10;3.60;;;;;;;;;;5035101;28;20468;-64
2022/10/03 07:54:17;;;;;;;5.83;3.13;;;;;;;;;;5034923;28;20917;-64
2022/10/03 07:56:59;;;;;;;5.37;3.03;;;;;;;;;;5035479;28;20789;-65
2022/10/03 07:59:48;;;;;;;5.47;2.77;;;;;;;;;;5023156;28;20438;-63
2022/10/03 08:02:26;;;;;;;6.97;3.50;;;;;;;;;;5010572;28;20524;-64
2022/10/03 08:05:13;;;;;;;4.47;3.00;;;;;;;;;;5034916;28;20438;-64
2022/10/03 08:07:52;;;;;;;5.53;3.40;;;;;;;;;;5034763;28;21261;-63
2022/10/03 08:10:36;;;;;;;7.80;3.30;;;;;;;;;;5035333;28;20441;-63
2022/10/03 08:13:21;;;;;;;6.50;3.53;;;;;;;;;;5035123;28;20515;-63
2022/10/03 08:15:59;;;;;;;4.80;2.70;;;;;;;;;;5035295;28;20445;-64
2022/10/03 08:18:49;;;;;;;4.43;3.73;;;;;;;;;;5034633;28;20959;-63
2022/10/03 08:21:21;;;;;;;5.40;4.20;;;;;;;;;;5034952;28;20441;-64
2022/10/03 08:24:06;;;;;;;6.80;4.70;;;;;;;;;;5034916;28;20987;-65
2022/10/03 08:26:45;;;;;;;7.70;4.43;;;;;;;;;;5035022;28;20484;-64
2022/10/03 08:29:19;;;;;;;7.60;3.47;;;;;;;;;;5034870;28;20489;-63
2022/10/03 08:32:11;;;;;;;6.33;4.13;;;;;;;;;;5035004;28;20503;-64
2022/10/03 08:37:51;;;;;;;7.70;3.30;;;;;;;;;;5090779;27;20538;-63
2022/10/03 08:40:37;;;;;;;4.77;2.63;;;;;;;;;;5083542;28;20909;-64
2022/10/03 08:43:21;;;;;;;4.70;2.70;;;;;;;;;;5090502;28;20478;-63
2022/10/03 08:45:56;;;;;;;6.73;2.83;;;;;;;;;;5090909;28;20763;-63
2022/10/03 08:48:42;;;;;;;5.90;2.53;;;;;;;;;;5090329;28;20522;-63
2022/10/03 08:51:21;;;;;;;6.03;2.33;;;;;;;;;;5090507;28;20914;-63
2022/10/03 08:54:01;;;;;;;7.20;3.43;;;;;;;;;;5090601;28;20559;-64
2022/10/03 08:56:36;;;;;;;7.17;3.80;;;;;;;;;;5090268;28;20478;-62
2022/10/03 08:59:20;;;;;;;7.30;3.10;;;;;;;;;;5090093;28;20466;-62
2022/10/03 09:02:13;;;;;;;5.80;3.17;;;;;;;;;;5089867;28;20450;-63
2022/10/03 09:04:55;;;;;;;7.40;3.07;;;;;;;;;;5051664;28;20444;-62
2022/10/03 09:07:37;;;;;;;4.30;3.00;;;;;;;;;;5090017;28;20505;-63
2022/10/03 09:10:23;;;;;;;7.37;2.97;;;;;;;;;;5066942;28;20479;-64
2022/10/03 09:13:03;;;;;;;5.93;2.83;;;;;;;;;;5090024;28;20493;-63
2022/10/03 09:15:45;;;;;;;4.07;2.33;;;;;;;;;;5089565;28;20897;-64
2022/10/03 09:18:40;;;;;;;6.67;3.03;;;;;;;;;;5088546;28;20972;-64
2022/10/03 09:21:23;;;;;;;3.50;2.10;;;;;;;;;;5065028;28;20443;-63
2022/10/03 09:24:00;;;;;;;7.17;2.43;;;;;;;;;;5089689;28;20431;-64
2022/10/03 09:26:42;;;;;;;7.23;2.47;;;;;;;;;;5089608;28;20479;-64
2022/10/03 09:29:28;;;;;;;7.93;3.30;;;;;;;;;;5080813;28;20450;-63
2022/10/03 09:32:17;;;;;;;6.27;4.47;;;;;;;;;;5089716;28;20439;-64
2022/10/03 09:34:54;;;;;;;6.07;2.83;;;;;;;;;;5072072;28;20431;-63
2022/10/03 09:37:42;;;;;;;6.20;2.50;;;;;;;;;;5089493;28;20485;-63
2022/10/03 09:40:56;;;;;;;6.37;3.73;;;13.70;99.90;;;;;;5071843;28;20496;-63
2022/10/03 09:43:53;;;;;;;5.63;3.07;;;25.60;38.10;;;;;;5089413;28;20439;-63
2022/10/03 09:47:21;;;;;;;10.60;3.40;;;24.20;40.10;;;;;;5076229;28;20447;-63
2022/10/03 09:50:07;;;;;;;4.93;3.00;;;23.10;42.00;;;;;;5075741;28;20432;-62
2022/10/03 09:52:55;;;;;;;7.10;3.40;;;22.10;44.10;;;;;;5067999;28;20452;-62
2022/10/03 09:55:44;;;;;;;5.87;3.90;;;21.50;46.10;;;;;;5075614;28;20447;-63
2022/10/03 09:58:39;;;;;;;8.00;3.37;;;20.90;46.90;;;;;;5075673;28;20950;-62
2022/10/03 10:01:19;;;;;;;9.13;4.23;;;21.40;51.10;;;;;;5075635;28;20493;-63
2022/10/03 10:04:29;;;;;;;5.73;2.40;;;22.80;48.10;;;;;;5075350;28;20482;-63
2022/10/03 10:07:35;;;;;;;5.20;2.33;;;25.30;51.00;;;;;;5075436;28;20428;-63
2022/10/03 10:10:53;;;;;;;6.53;2.60;;;31.00;39.80;;;;;;5069104;28;20941;-63
2022/10/03 10:13:48;;;;;;;5.37;2.53;;;35.20;30.40;;;;;;5032679;28;20446;-64
2022/10/03 10:16:52;;;;;;;6.67;2.50;;;38.70;26.70;;;;;;5075313;28;20834;-65
2022/10/03 10:19:43;;;;;;;4.07;2.20;;;41.00;24.10;;;;;;5036178;28;20569;-64
2022/10/03 10:22:51;;;;;;;6.03;2.43;;;43.00;21.80;;;;;;5075102;28;20762;-65
2022/10/03 10:25:53;;;;;;;4.20;2.20;;;45.30;19.00;;;;;;5074824;28;20910;-64
2022/10/03 10:28:51;;;;;;;4.20;2.07;;;44.40;16.20;;;;;;5073350;28;20957;-64
2022/10/03 10:31:51;;;;;;;2.50;1.70;;;41.60;16.10;;;;;;5075146;28;20498;-64
2022/10/03 10:35:15;;;;;;;4.10;1.73;;;38.60;18.00;;;;;;5074742;28;20931;-65
2022/10/03 10:38:24;;;;;;;4.63;1.90;;;35.10;20.80;;;;;;5074942;28;20529;-64
2022/10/03 10:41:18;;;;;;;4.33;2.57;;;33.20;23.70;;;;;;5074962;28;20786;-64
2022/10/03 10:44:17;;;;;;;4.37;2.40;;;32.40;26.20;;;;;;5074461;28;20440;-64
2022/10/03 10:47:13;;;;;;;7.03;2.73;;;33.90;23.80;;;;;;5051825;28;20755;-64
2022/10/03 10:50:08;;;;;;;5.80;2.43;;;36.70;23.90;;;;;;5074813;28;20436;-63
2022/10/03 10:53:27;;;;;;;3.90;1.70;;;39.60;20.80;;;;;;5074726;28;20857;-64
2022/10/03 10:56:33;;;;;;;7.20;2.47;;;42.20;18.60;;;;;;5066026;28;20464;-65
2022/10/03 10:59:48;;;;;;;4.80;2.13;;;44.10;17.40;;;;;;5073666;28;20515;-64
2022/10/03 11:02:54;;;;;;;6.50;2.23;;;44.90;17.10;;;;;;5031973;28;20434;-65
2022/10/03 11:05:46;;;;;;;4.63;1.87;;;46.40;16.40;;;;;;5074395;28;20436;-64
2022/10/03 11:08:53;;;;;;;4.77;1.60;;;47.60;15.70;;;;;;5074222;28;20436;-64
2022/10/03 11:12:03;;;;;;;6.83;2.27;;;48.90;14.20;;;;;;5074295;28;20514;-64
2022/10/03 11:15:21;;;;;;;4.90;2.00;;;47.80;12.80;;;;;;5068775;28;20451;-64
2022/10/03 11:18:26;;;;;;;4.23;2.00;;;47.30;13.90;;;;;;5008735;28;21023;-64
2022/10/03 11:21:53;;;;;;;5.40;2.00;;;48.50;14.20;;;;;;5074039;28;20440;-64
2022/10/03 11:24:59;;;;;;;2.97;1.27;;;49.90;13.10;;;;;;5074127;28;20902;-65
2022/10/03 11:27:56;;;;;;;3.30;1.33;;;;;;;;;;5073836;28;20827;-65
2022/10/03 11:30:38;;;;;;;4.30;1.50;;;;;;;;;;5073880;28;20438;-64
2022/10/03 11:33:35;;;;;;;5.30;1.70;;;;;;;;;;5073476;28;20926;-64
2022/10/03 11:36:28;;;;;;;4.27;1.57;;;;;;;;;;5073407;28;20479;-65
2022/10/03 11:39:02;;;;;;;5.03;2.20;;;;;;;;;;5073795;28;20462;-64
2022/10/03 11:41:34;;;;;;;6.73;3.47;;;;;;;;;;5073730;28;20435;-63
2022/10/03 11:44:08;;;;;;;4.27;2.20;;;;;;;;;;5073462;28;20439;-63
2022/10/03 11:46:48;;;;;;;6.00;2.40;;;;;;;;;;5073684;28;20533;-63
2022/10/03 11:49:27;;;;;;;4.63;1.90;;;;;;;;;;5073469;28;20810;-64
2022/10/03 11:51:59;;;;;;;6.27;1.70;;;;;;;;;;5073586;28;20447;-63
2022/10/03 11:54:27;;;;;;;5.63;2.07;;;;;;;;;;5073472;28;20535;-63
2022/10/03 11:56:58;;;;;;;4.33;1.47;;;;;;;;;;5073079;28;20479;-64
2022/10/03 11:59:37;;;;;;;3.00;1.27;;;;;;;;;;5073256;28;20438;-64
2022/10/03 12:02:11;;;;;;;4.50;1.63;;;;;;;;;;5073308;28;20447;-64
2022/10/03 12:04:45;;;;;;;6.73;1.77;;;;;;;;;;5073302;28;20489;-64
2022/10/03 12:10:09;;;;;;;4.10;1.77;;;;;;;;;;5072649;28;20937;-64
2022/10/03 12:12:41;;;;;;;4.40;2.10;;;;;;;;;;5073357;28;20546;-64
2022/10/03 12:15:17;;;;;;;3.80;1.70;;;;;;;;;;5073281;28;20435;-64
2022/10/03 12:17:49;;;;;;;5.50;2.40;;;;;;;;;;5073188;28;20483;-64
2022/10/03 12:20:19;;;;;;;4.93;2.20;;;;;;;;;;5073116;28;20444;-65
2022/10/03 12:22:51;;;;;;;8.10;2.13;;;;;;;;;;5073074;28;20440;-65
2022/10/03 12:25:22;;;;;;;7.23;2.37;;;;;;;;;;5073141;28;20436;-64
2022/10/03 12:27:55;;;;;;;3.80;2.17;;;;;;;;;;5073102;28;20443;-64
2022/10/03 12:30:23;;;;;;;5.80;2.70;;;;;;;;;;5072642;28;20539;-64
2022/10/03 12:32:57;;;;;;;3.03;1.87;;;;;;;;;;5073142;28;20435;-63
2022/10/03 12:35:34;;;;;;;6.73;2.47;;;;;;;;;;5073022;28;20439;-64
2022/10/03 12:38:16;;;;;;;4.83;1.97;;;;;;;;;;5072931;28;20544;-63
2022/10/03 12:40:46;;;;;;;6.83;2.47;;;;;;;;;;5073188;28;20440;-63
2022/10/03 12:43:20;;;;;;;5.00;1.63;;;;;;;;;;5073065;28;20820;-64
2022/10/03 12:45:50;;;;;;;4.60;1.60;;;;;;;;;;5072807;28;20426;-64
2022/10/03 12:48:23;;;;;;;4.83;1.83;;;;;;;;;;5072639;28;20462;-66
2022/10/03 12:50:55;;;;;;;5.10;2.00;;;;;;;;;;5072683;28;20498;-66
2022/10/03 12:53:31;;;;;;;5.70;2.30;;;;;;;;;;5072723;28;20447;-64
2022/10/03 12:56:03;;;;;;;3.60;2.37;;;;;;;;;;5072546;28;20910;-64
2022/10/03 12:58:35;;;;;;;3.87;2.00;;;;;;;;;;5072757;28;20483;-64
2022/10/03 13:01:07;;;;;;;4.40;1.80;;;;;;;;;;5072795;28;20796;-64
2022/10/03 13:03:40;;;;;;;4.60;1.77;;;;;;;;;;5072563;28;20439;-64
2022/10/03 13:06:15;;;;;;;4.20;2.07;;;;;;;;;;5072559;28;20440;-64
2022/10/03 13:08:49;;;;;;;5.13;1.90;;;;;;;;;;5072387;28;20446;-64
2022/10/03 13:11:24;;;;;;;2.63;1.20;;;;;;;;;;5072954;28;20466;-63
2022/10/03 13:14:05;;;;;;;3.90;1.83;;;;;;;;;;5072583;28;20501;-64
2022/10/03 13:16:33;;;;;;;3.13;1.60;;;;;;;;;;5072651;28;20458;-63
2022/10/03 13:19:04;;;;;;;2.60;1.33;;;;;;;;;;5072537;28;20435;-64
2022/10/03 13:21:49;;;;;;;4.13;2.30;;;;;;;;;;5072833;28;20781;-63
2022/10/03 13:24:27;;;;;;;5.50;1.50;;;;;;;;;;5076181;28;20442;-64
2022/10/03 13:26:58;;;;;;;3.20;2.20;;;;;;;;;;5076483;28;20998;-63
2022/10/03 13:29:29;;;;;;;2.80;1.70;;;;;;;;;;5076357;28;20472;-64
2022/10/03 13:32:02;;;;;;;4.20;1.80;;;;;;;;;;5076268;28;20503;-63
2022/10/03 13:34:32;;;;;;;7.33;1.97;;;;;;;;;;5076254;28;20778;-63
2022/10/03 13:37:05;;;;;;;5.83;2.43;;;;;;;;;;5075892;28;20484;-62
2022/10/03 13:39:40;;;;;;;4.10;2.17;;;;;;;;;;5076123;28;20497;-62
2022/10/03 13:42:12;;;;;;;5.10;3.30;;;;;;;;;;5076130;28;20435;-62
2022/10/03 13:44:43;;;;;;;6.00;2.30;;;;;;;;;;5075868;28;20501;-62
2022/10/03 13:47:22;;;;;;;6.40;2.80;;;;;;;;;;5075869;28;20444;-62
2022/10/03 13:49:52;;;;;;;5.47;2.57;;;;;;;;;;5075665;28;20526;-62
2022/10/03 13:52:23;;;;;;;10.00;4.00;;;;;;;;;;5075690;28;20439;-63
2022/10/03 13:55:12;;;;;;;9.90;2.40;;;;;;;;;;5075859;28;20956;-62
2022/10/03 13:57:44;;;;;;;5.53;2.17;;;;;;;;;;5072391;28;20483;-63
2022/10/03 14:00:14;;;;;;;3.60;2.23;;;;;;;;;;5075268;28;20428;-63
2022/10/03 14:03:01;;;;;;;5.33;2.10;;;;;;;;;;5075578;28;20474;-63
2022/10/03 14:05:37;;;;;;;6.40;2.23;;;;;;;;;;5075723;28;20436;-63
2022/10/03 14:08:10;;;;;;;3.67;2.00;;;;;;;;;;5075347;28;20471;-62
2022/10/03 14:10:54;;;;;;;6.73;2.47;;;;;;;;;;5075297;28;20561;-62
2022/10/03 14:13:29;;;;;;;5.10;2.43;;;;;;;;;;5075396;28;20439;-65
2022/10/03 14:15:59;;;;;;;7.73;2.73;;;;;;;;;;5075040;28;20772;-63
2022/10/03 14:18:34;;;;;;;3.23;1.70;;;;;;;;;;5074949;28;20490;-62
2022/10/03 14:21:18;;;;;;;7.50;1.67;;;;;;;;;;5075302;28;20444;-62
2022/10/03 14:23:49;;;;;;;4.10;2.27;;;;;;;;;;5075335;28;20497;-63
2022/10/03 14:26:20;;;;;;;3.70;2.17;;;;;;;;;;5075402;28;20436;-63
2022/10/03 14:28:52;;;;;;;4.30;2.00;;;;;;;;;;5075337;28;20522;-63
2022/10/03 14:31:24;;;;;;;5.17;1.90;;;;;;;;;;5075092;28;20483;-62
2022/10/03 14:33:56;;;;;;;6.40;2.50;;;;;;;;;;5074921;28;20440;-62
2022/10/03 14:36:33;;;;;;;5.53;2.60;;;;;;;;;;5074707;28;20472;-63
2022/10/03 14:39:09;;;;;;;6.03;3.00;;;;;;;;;;5074820;28;20581;-62
2022/10/03 14:41:42;;;;;;;3.20;1.97;;;;;;;;;;5074793;28;21383;-62
2022/10/03 14:44:14;;;;;;;4.60;2.10;;;;;;;;;;5074248;28;20863;-62
2022/10/03 14:46:43;;;;;;;9.13;2.53;;;;;;;;;;5074946;28;20436;-63
2022/10/03 14:49:16;;;;;;;5.00;3.17;;;;;;;;;;5074321;28;20462;-62
2022/10/03 14:51:48;;;;;;;6.03;2.23;;;;;;;;;;5074885;28;20444;-62
2022/10/03 14:54:18;;;;;;;7.13;2.53;;;;;;;;;;5074685;28;20505;-63
2022/10/03 14:56:47;;;;;;;5.63;2.60;;;;;;;;;;5074310;28;20957;-63
2022/10/03 14:59:19;;;;;;;7.50;2.50;;;;;;;;;;5074672;28;20483;-62
2022/10/03 15:01:51;;;;;;;5.53;2.37;;;;;;;;;;5074639;28;20523;-63
2022/10/03 15:04:25;;;;;;;4.83;2.83;;;;;;;;;;5074424;28;20432;-63
2022/10/03 15:06:53;;;;;;;4.87;2.30;;;;;;;;;;5074424;28;20489;-62
2022/10/03 15:09:22;;;;;;;5.97;3.03;;;;;;;;;;5074179;28;20432;-63
2022/10/03 15:11:53;;;;;;;6.80;2.60;;;;;;;;;;5074378;28;20463;-63
2022/10/03 15:14:23;;;;;;;3.80;2.60;;;;;;;;;;5074582;28;20482;-63
2022/10/03 15:16:52;;;;;;;7.70;2.77;;;;;;;;;;5074233;28;20444;-63
2022/10/03 15:19:21;;;;;;;8.37;2.37;;;;;;;;;;5074096;28;20570;-63
2022/10/03 15:21:51;;;;;;;6.17;2.87;;;;;;;;;;5074176;28;20463;-63
2022/10/03 15:24:20;;;;;;;3.70;2.30;;;;;;;;;;5073980;28;20527;-63
2022/10/03 15:26:51;;;;;;;6.83;2.20;;;;;;;;;;5074122;28;20526;-63
2022/10/03 15:29:20;;;;;;;5.20;2.30;;;;;;;;;;5073905;28;20447;-63
2022/10/03 15:31:49;;;;;;;3.93;2.13;;;;;;;;;;5073886;28;20436;-62
2022/10/03 15:34:19;;;;;;;7.17;2.40;;;;;;;;;;5073846;28;20495;-63
2022/10/03 15:36:48;;;;;;;3.43;2.60;;;;;;;;;;5073659;28;20810;-63
2022/10/03 15:39:19;;;;;;;4.37;2.60;;;;;;;;;;5073536;28;20486;-63
2022/10/03 15:41:50;;;;;;;4.83;2.50;;;;;;;;;;5073604;28;20434;-63
2022/10/03 15:44:20;;;;;;;3.63;2.37;;;;;;;;;;5073703;28;20825;-62
2022/10/03 15:46:52;;;;;;;6.47;2.53;;;;;;;;;;5072721;28;20957;-63
2022/10/03 15:49:24;;;;;;;3.20;2.30;;;;;;;;;;5073476;28;20486;-63
2022/10/03 15:51:52;;;;;;;4.80;2.50;;;;;;;;;;5073700;28;20845;-62
2022/10/03 15:54:21;;;;;;;5.40;2.60;;;;;;;;;;5073416;28;20438;-62
2022/10/03 15:56:54;;;;;;;6.33;3.00;;;;;;;;;;5073426;28;20525;-63